F/V Adeline Stephen — FGUF — position and weather

sailwx.info

Track history (hours):
 
Tides and Currents Weather Stations Pressure Air Temp Water Temp Dewpoint Dewpoint Depression Visibility Wind Speed Wind Dir Waves Ship Positions

F/V Adeline Stephen

Last reported at 2015-Apr-24 13:33 UTC. Time now 2015-Apr-28 06:50 UTC.
Position N 47°44' W 003°22'.

Length 18 m.

Type: Fishing. MMSI: 228929000.

Date/timePositionNaut miles runAvg speedWind from/ knotsBaromVisibWave heightAir tempDewpointWater temp
2015-Apr-24 13:33N 47°44' W 003°22'0 0.1
2015-Apr-24 12:33N 47°44' W 003°22'0 0.0
2015-Apr-24 11:33N 47°44' W 003°22'0 0.0
2015-Apr-24 10:33N 47°44' W 003°22'0 0.1
2015-Apr-24 09:33N 47°44' W 003°22'0 0.0
2015-Apr-24 08:33N 47°44' W 003°22'0 0.0
2015-Apr-24 07:33N 47°44' W 003°22'3 2.9
2015-Apr-24 06:33N 47°41' W 003°24'8 8.5
2015-Apr-24 05:33N 47°40' W 003°36'  
2015-Apr-20 19:10N 47°39' W 003°52'5 8.5
2015-Apr-20 18:33N 47°39' W 003°44'8 8.4
2015-Apr-20 17:33N 47°40' W 003°31'7 7.3
2015-Apr-20 16:33N 47°44' W 003°22'0 0.0
2015-Apr-20 15:33N 47°44' W 003°22'0 0.0
2015-Apr-20 14:33N 47°44' W 003°22'0 0.0
2015-Apr-20 13:33N 47°44' W 003°22'0 0.0
2015-Apr-20 12:33N 47°44' W 003°22'0 0.0
2015-Apr-20 11:34N 47°44' W 003°22'0 0.0
2015-Apr-20 10:34N 47°44' W 003°22'0 0.0
2015-Apr-20 09:34N 47°44' W 003°22'7 6.6
2015-Apr-20 08:33N 47°40' W 003°30'8 7.9
2015-Apr-20 07:33N 47°38' W 003°41'8 8.0
2015-Apr-20 06:33N 47°36' W 003°53'8 8.2
2015-Apr-20 05:33N 47°33' W 004°04'  
2015-Apr-16 18:05N 47°37' W 003°44'5 8.4
2015-Apr-16 17:32N 47°39' W 003°37'9 8.7
2015-Apr-16 16:33N 47°41' W 003°25'3 3.4
2015-Apr-16 15:33N 47°44' W 003°22'0 0.1
2015-Apr-16 14:33N 47°44' W 003°22'0 0.0
2015-Apr-16 13:33N 47°44' W 003°22'0 0.0
2015-Apr-16 12:33N 47°44' W 003°22'3 2.7
2015-Apr-16 11:33N 47°41' W 003°24'9 8.6
2015-Apr-16 10:32N 47°39' W 003°36'17 8.7
2015-Apr-16 08:33N 47°32' W 003°60'40 8.1
2015-Apr-16 03:33N 47°17' W 004°54'22 5.1
2015-Apr-15 23:16N 47°09' W 005°25'4 0.9
2015-Apr-15 18:33N 47°13' W 005°26'  
Track history (hours):
 
Tides and Currents Weather Stations Pressure Air Temp Water Temp Dewpoint Dewpoint Depression Visibility Wind Speed Wind Dir Waves Ship Positions

F/V Adeline Stephen

Last reported at 2015-Apr-24 13:33 UTC. Time now 2015-Apr-28 06:50 UTC.
Position N 47°44' W 003°22'.

Length 18 m.

Type: Fishing. MMSI: 228929000.

Date/timePositionNaut miles runAvg speedWind from/ knotsBaromVisibWave heightAir tempDewpointWater temp
2015-Apr-24 13:33N 47°44' W 003°22'0 0.1
2015-Apr-24 12:33N 47°44' W 003°22'0 0.0
2015-Apr-24 11:33N 47°44' W 003°22'0 0.0
2015-Apr-24 10:33N 47°44' W 003°22'0 0.1
2015-Apr-24 09:33N 47°44' W 003°22'0 0.0
2015-Apr-24 08:33N 47°44' W 003°22'0 0.0
2015-Apr-24 07:33N 47°44' W 003°22'3 2.9
2015-Apr-24 06:33N 47°41' W 003°24'8 8.5
2015-Apr-24 05:33N 47°40' W 003°36'  
2015-Apr-20 19:10N 47°39' W 003°52'5 8.5
2015-Apr-20 18:33N 47°39' W 003°44'8 8.4
2015-Apr-20 17:33N 47°40' W 003°31'7 7.3
2015-Apr-20 16:33N 47°44' W 003°22'0 0.0
2015-Apr-20 15:33N 47°44' W 003°22'0 0.0
2015-Apr-20 14:33N 47°44' W 003°22'0 0.0
2015-Apr-20 13:33N 47°44' W 003°22'0 0.0
2015-Apr-20 12:33N 47°44' W 003°22'0 0.0
2015-Apr-20 11:34N 47°44' W 003°22'0 0.0
2015-Apr-20 10:34N 47°44' W 003°22'0 0.0
2015-Apr-20 09:34N 47°44' W 003°22'7 6.6
2015-Apr-20 08:33N 47°40' W 003°30'8 7.9
2015-Apr-20 07:33N 47°38' W 003°41'8 8.0
2015-Apr-20 06:33N 47°36' W 003°53'8 8.2
2015-Apr-20 05:33N 47°33' W 004°04'  
2015-Apr-16 18:05N 47°37' W 003°44'5 8.4
2015-Apr-16 17:32N 47°39' W 003°37'9 8.7
2015-Apr-16 16:33N 47°41' W 003°25'3 3.4
2015-Apr-16 15:33N 47°44' W 003°22'0 0.1
2015-Apr-16 14:33N 47°44' W 003°22'0 0.0
2015-Apr-16 13:33N 47°44' W 003°22'0 0.0
2015-Apr-16 12:33N 47°44' W 003°22'3 2.7
2015-Apr-16 11:33N 47°41' W 003°24'9 8.6
2015-Apr-16 10:32N 47°39' W 003°36'17 8.7
2015-Apr-16 08:33N 47°32' W 003°60'40 8.1
2015-Apr-16 03:33N 47°17' W 004°54'22 5.1
2015-Apr-15 23:16N 47°09' W 005°25'4 0.9
2015-Apr-15 18:33N 47°13' W 005°26'  

Dump ship's entire track history